Leverburgh, United Kingdom
Current Conditions -  °F | °C
As of 2:20 AM on Thursday 18 Dec 2014 (Local Time) from EGPL Reporting Station
Broken Clouds Broken Clouds  
Wind Chill: 38°   Ceiling: 4100
Heat Index: 46°   Visibility: 5mi
Dew Point: 41°   Wind: 24mph
Humidity: 81%   Direction: 240°WSW
Pressure: 29.29"   Gusts: NA
Location:  57.77°N, 7.01°W
Report Text: EGPL 180220Z AUTO 24021KT 8000 FEW025/// SCT030/// BKN041/// 08/05 Q0992
Loading
Personal Weather Stations






























Interactive Weather Map New forecast layout! Learn more

10-Day Weather Forecast

Advertisements
Track Severe Weather on mobile